Time;durP1;ratioP1;P1;durP2;ratioP2;P2;SDS_P1;SDS_P2;PMS_P1;PMS_P2;Temp;Humidity;BMP_temperature;BMP_pressure;BME280_temperature;BME280_humidity;BME280_pressure;Samples;Min_cycle;Max_cycle;Signal;HPM_P1;HPM_P2
2021/04/06 00:00:23;;;;;;;14.05;5.55;;;;;;;1.03;77.89;97498.86;2216131;80;21302;-84
2021/04/06 00:03:26;;;;;;;8.58;4.22;;;;;;;1.07;78.09;97496.30;2216265;80;21172;-85
2021/04/06 00:06:28;;;;;;;9.70;4.97;;;;;;;1.09;78.13;97494.86;2216006;80;21294;-84
2021/04/06 00:09:30;;;;;;;17.37;10.60;;;;;;;1.08;78.09;97493.25;2216024;80;21563;-84
2021/04/06 00:12:32;;;;;;;22.02;8.88;;;;;;;1.08;78.38;97491.48;2215857;80;21713;-84
2021/04/06 00:15:34;;;;;;;15.72;5.92;;;;;;;1.05;78.08;97491.78;2215816;80;21138;-84
2021/04/06 00:18:36;;;;;;;10.90;5.37;;;;;;;1.04;78.35;97495.33;2216125;80;21135;-85
2021/04/06 00:21:37;;;;;;;12.45;5.58;;;;;;;1.08;78.53;97497.92;2215980;80;21281;-84
2021/04/06 00:24:39;;;;;;;10.80;4.78;;;;;;;1.09;78.10;97502.12;2215492;80;21723;-84
2021/04/06 00:27:41;;;;;;;8.05;4.95;;;;;;;1.11;78.14;97507.15;2215572;80;21336;-85
2021/04/06 00:30:43;;;;;;;6.97;4.60;;;;;;;1.07;78.19;97496.78;2215389;80;21733;-83
2021/04/06 00:33:46;;;;;;;9.70;5.42;;;;;;;1.02;78.46;97508.85;2215614;80;21586;-84
2021/04/06 00:36:48;;;;;;;12.15;5.08;;;;;;;1.02;78.51;97520.45;2216041;80;21167;-83
2021/04/06 00:39:51;;;;;;;7.05;4.72;;;;;;;1.06;78.41;97515.31;2216073;80;21317;-85
2021/04/06 00:42:52;;;;;;;7.67;4.65;;;;;;;1.08;78.63;97503.08;2215855;80;21309;-84
2021/04/06 00:45:54;;;;;;;5.42;4.83;;;;;;;1.06;78.16;97513.22;2215857;80;21167;-84
2021/04/06 00:48:56;;;;;;;6.47;4.22;;;;;;;1.06;78.38;97510.16;2215877;80;21194;-83
2021/04/06 00:51:58;;;;;;;9.93;5.62;;;;;;;1.08;78.28;97508.23;2216387;80;21278;-83
2021/04/06 00:55:00;;;;;;;5.05;4.55;;;;;;;1.05;78.51;97515.47;2215877;80;21568;-84
2021/04/06 00:58:03;;;;;;;4.95;3.77;;;;;;;0.99;78.22;97497.52;2216208;80;21733;-84
2021/04/06 01:01:04;;;;;;;9.03;5.40;;;;;;;1.00;78.39;97517.67;2215963;80;21139;-84
2021/04/06 01:04:06;;;;;;;7.28;5.50;;;;;;;0.96;78.26;97529.25;2215871;80;21171;-84
2021/04/06 01:07:08;;;;;;;6.95;4.80;;;;;;;0.98;78.37;97529.90;2216020;80;21639;-83
2021/04/06 01:10:10;;;;;;;7.70;5.67;;;;;;;1.02;78.28;97538.50;2216047;80;21658;-84
2021/04/06 01:13:12;;;;;;;6.53;5.10;;;;;;;1.06;78.37;97526.91;2215952;80;21492;-84
2021/04/06 01:16:15;;;;;;;7.33;5.62;;;;;;;1.07;78.34;97532.40;2216131;80;21313;-84
2021/04/06 01:19:16;;;;;;;6.65;5.40;;;;;;;1.07;78.26;97536.75;2216333;80;21139;-84
2021/04/06 01:22:18;;;;;;;6.85;5.65;;;;;;;1.05;78.30;97524.01;2216100;80;21305;-84
2021/04/06 01:25:20;;;;;;;6.53;4.65;;;;;;;1.08;78.11;97526.77;2216404;80;21334;-84
2021/04/06 01:28:22;;;;;;;8.63;5.62;;;;;;;1.10;78.15;97526.97;2216337;80;21297;-84
2021/04/06 01:31:23;;;;;;;7.35;5.30;;;;;;;1.06;77.84;97524.34;2216084;80;21111;-83
2021/04/06 01:34:25;;;;;;;7.83;5.62;;;;;;;1.05;77.85;97534.32;2216236;80;21281;-84
2021/04/06 01:37:28;;;;;;;7.62;4.95;;;;;;;1.08;77.67;97531.92;2215880;80;21281;-84
2021/04/06 01:40:31;;;;;;;6.70;5.05;;;;;;;1.06;77.58;97528.69;2215600;80;21286;-84
2021/04/06 01:43:34;;;;;;;4.10;3.65;;;;;;;1.08;77.17;97529.34;2216107;80;21298;-84
2021/04/06 01:46:40;;;;;;;5.53;4.60;;;;;;;1.02;77.26;97527.38;2215949;80;21286;-83
2021/04/06 01:49:41;;;;;;;9.43;5.00;;;;;;;1.00;77.26;97530.55;2216131;80;21306;-84
2021/04/06 01:52:42;;;;;;;6.03;4.03;;;;;;;0.98;77.16;97528.61;2216168;80;21714;-83
2021/04/06 01:55:44;;;;;;;5.30;4.22;;;;;;;0.94;76.90;97537.61;2215879;80;21270;-83
2021/04/06 01:58:48;;;;;;;6.53;3.83;;;;;;;0.93;77.07;97543.25;2216207;80;21634;-84
2021/04/06 02:01:51;;;;;;;7.60;4.72;;;;;;;0.89;77.10;97539.33;2216110;80;21297;-85
2021/04/06 02:04:53;;;;;;;8.43;4.72;;;;;;;0.84;77.02;97543.65;2216083;80;21721;-84
2021/04/06 02:07:57;;;;;;;4.33;3.50;;;;;;;0.78;76.90;97548.09;2216062;80;21310;-84
2021/04/06 02:10:58;;;;;;;7.78;4.33;;;;;;;0.75;76.98;97536.80;2216236;80;21305;-84
2021/04/06 02:14:00;;;;;;;6.00;3.77;;;;;;;0.72;77.01;97547.37;2216254;80;21313;-84
2021/04/06 02:17:02;;;;;;;6.53;3.62;;;;;;;0.76;77.04;97540.98;2216047;80;21282;-84
2021/04/06 02:20:03;;;;;;;4.10;3.77;;;;;;;0.73;76.78;97534.01;2215943;80;21136;-83
2021/04/06 02:23:05;;;;;;;4.72;3.00;;;;;;;0.75;76.76;97530.35;2216276;80;21293;-84
2021/04/06 02:26:07;;;;;;;6.55;3.55;;;;;;;0.70;76.46;97542.84;2214180;80;21345;-84
2021/04/06 02:29:09;;;;;;;4.90;3.35;;;;;;;0.69;76.72;97553.30;2208915;81;21310;-84
2021/04/06 02:32:11;;;;;;;5.22;3.20;;;;;;;0.63;76.47;97548.72;2208894;81;21266;-84
2021/04/06 02:35:13;;;;;;;6.42;3.37;;;;;;;0.57;76.53;97552.71;2208976;81;21175;-84
2021/04/06 02:38:14;;;;;;;7.72;3.20;;;;;;;0.57;76.48;97546.27;2208623;81;21171;-83
2021/04/06 02:41:17;;;;;;;7.37;3.33;;;;;;;0.55;76.49;97551.57;2208659;81;21310;-84
2021/04/06 02:44:18;;;;;;;4.65;2.70;;;;;;;0.52;75.90;97535.09;2208956;81;21330;-84
2021/04/06 02:47:20;;;;;;;6.15;3.08;;;;;;;0.45;76.21;97537.10;2208765;81;22056;-84
2021/04/06 02:50:22;;;;;;;4.75;3.10;;;;;;;0.50;76.25;97549.08;2208916;81;21266;-85
2021/04/06 02:53:25;;;;;;;3.80;2.80;;;;;;;0.49;76.18;97561.16;2208912;81;21104;-85
2021/04/06 02:56:26;;;;;;;5.15;3.20;;;;;;;0.48;76.09;97555.67;2208715;81;21631;-85
2021/04/06 02:59:29;;;;;;;6.12;3.45;;;;;;;0.43;76.05;97552.70;2209308;81;21310;-85
2021/04/06 03:02:31;;;;;;;8.05;3.45;;;;;;;0.38;76.12;97557.49;2208647;81;21342;-85
2021/04/06 03:05:32;;;;;;;9.55;3.60;;;;;;;0.38;76.21;97566.51;2208803;81;21329;-85
2021/04/06 03:08:34;;;;;;;6.70;3.40;;;;;;;0.36;76.26;97581.27;2208656;81;21283;-85
2021/04/06 03:11:36;;;;;;;6.97;4.22;;;;;;;0.35;76.21;97573.21;2208626;81;21282;-86
2021/04/06 03:14:37;;;;;;;6.47;2.87;;;;;;;0.38;76.27;97570.84;2208946;81;21293;-85
2021/04/06 03:17:39;;;;;;;9.03;4.33;;;;;;;0.34;76.15;97569.02;2209079;81;21147;-85
2021/04/06 03:20:42;;;;;;;9.33;3.87;;;;;;;0.30;76.12;97581.05;2208602;81;21306;-86
2021/04/06 03:23:44;;;;;;;10.95;4.25;;;;;;;0.21;76.18;97577.56;2208846;81;21743;-86
2021/04/06 03:26:46;;;;;;;6.75;4.12;;;;;;;0.12;76.53;97577.93;2212534;80;21699;-86
2021/04/06 03:29:48;;;;;;;9.78;3.95;;;;;;;0.08;76.51;97588.63;2219211;80;21289;-85
2021/04/06 03:32:50;;;;;;;5.08;3.22;;;;;;;0.05;76.64;97588.45;2219420;80;21309;-85
2021/04/06 03:35:51;;;;;;;6.17;3.55;;;;;;;0.00;76.59;97588.08;2219528;80;21281;-84
2021/04/06 03:38:53;;;;;;;6.60;3.35;;;;;;;0.01;76.69;97591.45;2219281;80;21289;-85
2021/04/06 03:41:54;;;;;;;6.85;3.10;;;;;;;-0.01;76.88;97598.00;2219528;80;21289;-85
2021/04/06 03:44:56;;;;;;;10.38;4.40;;;;;;;-0.03;76.67;97613.59;2219416;80;21184;-85
2021/04/06 03:47:57;;;;;;;11.10;4.50;;;;;;;-0.02;76.76;97621.65;2219469;80;21130;-85
2021/04/06 03:50:59;;;;;;;11.03;4.05;;;;;;;0.00;76.81;97620.25;2219419;80;21139;-86
2021/04/06 03:54:01;;;;;;;14.20;5.20;;;;;;;0.02;76.61;97632.97;2219187;80;21301;-85
2021/04/06 03:57:02;;;;;;;15.70;4.95;;;;;;;0.02;76.72;97616.24;2219184;80;21310;-85
2021/04/06 04:00:04;;;;;;;6.90;4.03;;;;;;;0.03;76.44;97604.52;2219390;80;21336;-85
2021/04/06 04:03:06;;;;;;;10.85;5.10;;;;;;;0.04;76.13;97617.72;2219190;80;21139;-85
2021/04/06 04:06:08;;;;;;;10.35;5.15;;;;;;;0.05;76.35;97599.22;2219398;80;21277;-85
2021/04/06 04:09:10;;;;;;;6.58;4.58;;;;;;;0.04;76.24;97627.20;2219630;80;21313;-85
2021/04/06 04:12:11;;;;;;;14.25;4.72;;;;;;;0.03;76.46;97604.99;2219447;80;21147;-85
2021/04/06 04:15:13;;;;;;;8.20;4.50;;;;;;;0.06;76.34;97617.09;2219383;80;21302;-85
2021/04/06 04:18:15;;;;;;;9.43;4.37;;;;;;;0.12;76.29;97629.41;2219313;80;21695;-86
2021/04/06 04:21:17;;;;;;;8.43;4.58;;;;;;;0.17;76.48;97639.28;2219122;80;21274;-86
2021/04/06 04:24:19;;;;;;;8.85;4.08;;;;;;;0.19;76.42;97638.20;2219252;80;21305;-86
2021/04/06 04:27:20;;;;;;;9.88;5.17;;;;;;;0.22;76.33;97649.50;2217648;80;21301;-84
2021/04/06 04:30:38;;;;;;;8.43;5.00;;;;;;;0.27;76.19;97640.05;2216089;80;21148;-85
2021/04/06 04:33:40;;;;;;;8.77;5.77;;;;;;;0.34;76.41;97641.59;2216532;80;21628;-86
2021/04/06 04:36:41;;;;;;;6.40;4.95;;;;;;;0.45;76.29;97634.97;2216058;80;21702;-86
2021/04/06 04:39:43;;;;;;;11.95;4.95;;;;;;;0.48;76.09;97633.42;2216077;80;21159;-88
2021/04/06 04:42:44;;;;;;;6.53;5.15;;;;;;;0.51;75.71;97631.36;2215652;80;21305;-87
2021/04/06 04:45:46;;;;;;;7.85;5.15;;;;;;;0.48;75.32;97639.86;2215652;80;21789;-87
2021/04/06 04:48:48;;;;;;;11.05;6.37;;;;;;;0.49;75.58;97650.02;2215554;80;21313;-86
2021/04/06 04:51:50;;;;;;;5.85;5.15;;;;;;;0.52;75.55;97644.57;2215657;80;21310;-87
2021/04/06 04:54:52;;;;;;;9.18;5.33;;;;;;;0.55;75.46;97644.31;2215962;80;21148;-85
2021/04/06 04:57:54;;;;;;;9.63;4.95;;;;;;;0.54;75.44;97639.27;2216062;80;21809;-85
2021/04/06 05:00:55;;;;;;;8.73;4.92;;;;;;;0.54;75.38;97641.38;2215949;80;21274;-85
2021/04/06 05:03:57;;;;;;;6.72;4.15;;;;;;;0.58;75.44;97647.55;2215686;80;21143;-85
2021/04/06 05:06:59;;;;;;;7.40;4.90;;;;;;;0.60;75.22;97649.49;2216006;80;21301;-89
2021/04/06 05:10:01;;;;;;;10.40;6.05;;;;;;;0.64;75.35;97650.38;2216234;80;21317;-85
2021/04/06 05:13:02;;;;;;;9.10;4.87;;;;;;;0.67;75.23;97640.25;2216139;80;21750;-86
2021/04/06 05:16:04;;;;;;;7.75;4.58;;;;;;;0.72;75.29;97647.05;2216228;80;21171;-87
2021/04/06 05:19:06;;;;;;;8.45;4.45;;;;;;;0.75;75.18;97663.06;2216219;80;21309;-94
2021/04/06 05:22:08;;;;;;;7.50;4.45;;;;;;;0.74;75.21;97674.80;2216106;80;21313;-88
2021/04/06 05:25:10;;;;;;;11.63;5.47;;;;;;;0.74;75.23;97672.22;2215981;80;21179;-87
2021/04/06 05:28:12;;;;;;;9.78;5.40;;;;;;;0.74;75.18;97667.07;2217962;80;21532;-90
2021/04/06 05:31:14;;;;;;;11.05;4.95;;;;;;;0.77;75.14;97662.91;2220071;80;21805;-87
2021/04/06 05:34:16;;;;;;;18.25;7.20;;;;;;;0.83;75.30;97677.33;2219799;80;21163;-89
2021/04/06 05:37:18;;;;;;;22.58;11.03;;;;;;;0.87;75.18;97685.58;2219928;80;21258;-87
2021/04/06 05:40:19;;;;;;;24.05;11.12;;;;;;;0.89;74.98;97682.85;2219601;80;21266;-87
2021/04/06 05:43:21;;;;;;;13.38;5.15;;;;;;;0.92;75.30;97692.41;2219805;80;21154;-87
2021/04/06 05:46:23;;;;;;;10.82;6.45;;;;;;;0.99;75.39;97687.47;2220070;80;21714;-80
2021/04/06 05:49:25;;;;;;;9.73;5.08;;;;;;;1.05;75.16;97689.48;2219674;80;21324;-86
2021/04/06 05:52:26;;;;;;;46.30;22.37;;;;;;;1.07;74.75;97699.98;2219792;80;21346;-85
2021/04/06 05:55:28;;;;;;;11.93;5.97;;;;;;;1.13;74.84;97707.14;2219579;80;21287;-85
2021/04/06 05:58:29;;;;;;;15.28;6.30;;;;;;;1.19;74.52;97715.24;2219434;80;21175;-84
2021/04/06 06:01:31;;;;;;;9.33;5.00;;;;;;;1.21;74.51;97707.72;2219748;80;21187;-85
2021/04/06 06:04:33;;;;;;;10.10;5.53;;;;;;;1.25;74.60;97705.65;2220005;80;21722;-85
2021/04/06 06:07:35;;;;;;;8.95;5.70;;;;;;;1.29;74.23;97702.65;2218500;80;21314;-92
2021/04/06 06:10:38;;;;;;;12.73;6.15;;;;;;;1.31;74.37;97696.05;2191572;80;21266;-94
2021/04/06 06:13:40;;;;;;;22.45;9.48;;;;;;;1.31;74.00;97703.31;2220341;80;21310;-93
2021/04/06 06:16:42;;;;;;;17.65;6.75;;;;;;;1.34;73.84;97709.94;2220131;80;21152;-91
2021/04/06 06:19:44;;;;;;;9.08;5.67;;;;;;;1.38;73.97;97707.41;2192299;80;21254;-92
2021/04/06 06:22:46;;;;;;;17.70;6.92;;;;;;;1.48;74.04;97723.63;2220866;80;21158;-92
2021/04/06 06:25:48;;;;;;;9.85;6.10;;;;;;;1.54;74.10;97722.22;2192948;80;21135;-91
2021/04/06 06:28:50;;;;;;;15.08;5.95;;;;;;;1.59;73.61;97718.73;2212628;80;21294;-90
2021/04/06 06:31:54;;;;;;;14.68;5.50;;;;;;;1.67;73.26;97723.97;2209582;81;21338;-90
2021/04/06 06:34:55;;;;;;;9.13;5.05;;;;;;;1.73;72.64;97713.04;2209318;81;21310;-92
2021/04/06 06:37:57;;;;;;;11.20;6.03;;;;;;;1.78;72.63;97706.97;2210041;81;21278;-91
2021/04/06 06:40:59;;;;;;;8.98;5.53;;;;;;;1.87;72.68;97716.88;2210890;81;21171;-93
2021/04/06 06:44:01;;;;;;;15.10;6.60;;;;;;;1.87;72.43;97711.72;2209447;81;21313;-93
2021/04/06 06:47:02;;;;;;;9.23;5.08;;;;;;;1.85;72.49;97711.88;2209848;81;21297;-94
2021/04/06 06:50:04;;;;;;;9.40;5.12;;;;;;;1.77;71.78;97714.38;2209232;81;21341;-88
2021/04/06 06:53:06;;;;;;;10.75;5.15;;;;;;;1.69;71.94;97720.77;2209177;81;21322;-85
2021/04/06 06:56:08;;;;;;;7.92;5.60;;;;;;;1.68;72.38;97725.11;2209256;81;21266;-88
2021/04/06 06:59:09;;;;;;;11.03;5.22;;;;;;;1.62;72.26;97719.24;2209151;81;21290;-91
2021/04/06 07:02:11;;;;;;;8.75;4.85;;;;;;;1.53;71.85;97714.95;2209547;81;21715;-94
2021/04/06 07:05:13;;;;;;;10.45;5.22;;;;;;;1.49;72.20;97718.00;2209981;81;21159;-93
2021/04/06 07:08:15;;;;;;;9.65;5.12;;;;;;;1.44;71.80;97714.55;2209336;81;21326;-95
2021/04/06 07:11:17;;;;;;;11.43;5.35;;;;;;;1.51;72.38;97714.78;2210037;81;21294;-91
2021/04/06 07:14:19;;;;;;;8.70;5.60;;;;;;;1.60;72.11;97717.77;2209294;81;21329;-91
2021/04/06 07:17:21;;;;;;;14.13;5.85;;;;;;;1.66;71.69;97724.94;2209948;81;21119;-92
2021/04/06 07:20:23;;;;;;;10.03;5.37;;;;;;;1.71;71.03;97721.42;2211127;81;21568;-91
2021/04/06 07:23:26;;;;;;;16.62;7.10;;;;;;;1.77;70.40;97719.55;2209742;81;21328;-91
2021/04/06 07:26:29;;;;;;;12.78;6.12;;;;;;;1.83;71.09;97728.45;2211562;81;21163;-90
2021/04/06 07:29:34;;;;;;;10.13;6.25;;;;;;;1.95;70.63;97725.98;2210629;79;21306;-90
2021/04/06 07:32:36;;;;;;;11.43;6.62;;;;;;;1.91;70.25;97720.78;2210840;81;21579;-87
2021/04/06 07:35:38;;;;;;;12.60;5.92;;;;;;;1.84;69.91;97718.48;2209630;81;21159;-90
2021/04/06 07:38:40;;;;;;;11.00;5.08;;;;;;;1.72;70.21;97710.12;2209526;81;21754;-86
2021/04/06 07:41:42;;;;;;;9.40;6.67;;;;;;;1.70;70.76;97717.22;2208859;81;21132;-89
2021/04/06 07:44:43;;;;;;;10.72;7.03;;;;;;;1.70;71.13;97714.64;2209012;81;21166;-87
2021/04/06 07:47:45;;;;;;;9.53;5.62;;;;;;;1.68;70.71;97715.27;2209069;81;21301;-85
2021/04/06 07:50:48;;;;;;;11.08;6.42;;;;;;;1.64;70.22;97717.80;2208981;81;21272;-89
2021/04/06 07:53:51;;;;;;;10.28;6.60;;;;;;;1.61;70.73;97720.68;2209325;81;21172;-89
2021/04/06 07:56:53;;;;;;;9.08;6.45;;;;;;;1.60;70.77;97736.64;2209030;81;21757;-88
2021/04/06 07:59:55;;;;;;;14.70;6.90;;;;;;;1.58;70.66;97734.70;2209150;81;21746;-85
2021/04/06 08:02:57;;;;;;;13.98;7.20;;;;;;;1.63;71.17;97744.08;2209080;81;21188;-85
2021/04/06 08:05:58;;;;;;;22.62;11.43;;;;;;;1.67;70.42;97751.07;2208937;81;21322;-87
2021/04/06 08:09:01;;;;;;;11.90;7.53;;;;;;;1.64;70.52;97746.19;2209157;80;21330;-89
2021/04/06 08:12:02;;;;;;;12.90;5.60;;;;;;;1.62;70.84;97744.23;2208767;81;21326;-85
2021/04/06 08:15:04;;;;;;;10.45;5.92;;;;;;;1.67;69.46;97758.33;2208651;81;21731;-85
2021/04/06 08:18:06;;;;;;;11.55;4.65;;;;;;;1.63;70.22;97742.80;2208461;81;21694;-85
2021/04/06 08:21:08;;;;;;;12.70;6.35;;;;;;;1.62;69.93;97749.39;2208618;81;21453;-87
2021/04/06 08:24:09;;;;;;;10.63;5.53;;;;;;;1.69;69.42;97753.83;2208814;81;21275;-87
2021/04/06 08:27:11;;;;;;;16.37;6.75;;;;;;;1.74;69.79;97740.95;2209091;80;21298;-90
2021/04/06 08:30:13;;;;;;;13.13;7.87;;;;;;;1.80;69.94;97737.79;2208990;81;21683;-89
2021/04/06 08:33:14;;;;;;;14.43;7.35;;;;;;;1.84;69.08;97739.94;2186635;81;21164;-90
2021/04/06 08:36:16;;;;;;;16.07;8.10;;;;;;;1.84;69.34;97734.78;2208793;81;21191;-89
2021/04/06 08:39:18;;;;;;;15.88;8.33;;;;;;;1.95;69.48;97741.00;2208929;81;21277;-88
2021/04/06 08:42:20;;;;;;;16.62;7.80;;;;;;;2.22;69.10;97747.02;2209876;81;21199;-89
2021/04/06 08:45:22;;;;;;;11.48;7.28;;;;;;;2.48;68.47;97744.46;2209029;81;21279;-89
2021/04/06 08:48:24;;;;;;;15.08;8.60;;;;;;;2.69;67.18;97742.31;2208973;81;21120;-88
2021/04/06 08:51:25;;;;;;;13.05;7.17;;;;;;;3.01;67.41;97745.53;2208621;81;21292;-86
2021/04/06 08:54:27;;;;;;;12.98;7.90;;;;;;;3.36;66.95;97743.72;2208860;81;21571;-87
2021/04/06 08:57:29;;;;;;;12.58;7.00;;;;;;;3.64;66.33;97740.39;2208778;81;21302;-86
2021/04/06 09:00:31;;;;;;;12.30;6.25;;;;;;;3.77;65.61;97741.23;2208987;81;21302;-83
2021/04/06 09:03:33;;;;;;;11.25;6.72;;;;;;;3.73;64.49;97744.61;2208501;81;21742;-87
2021/04/06 09:06:35;;;;;;;15.23;7.53;;;;;;;3.74;65.43;97744.94;2208575;81;21751;-87
2021/04/06 09:09:37;;;;;;;13.20;6.35;;;;;;;3.83;65.66;97739.28;2209096;81;21179;-86
2021/04/06 09:12:39;;;;;;;8.48;6.15;;;;;;;3.82;65.43;97737.17;2209070;81;21318;-86
2021/04/06 09:15:40;;;;;;;10.80;6.45;;;;;;;3.87;64.01;97735.42;2208775;81;21314;-87
2021/04/06 09:18:42;;;;;;;10.35;5.42;;;;;;;3.84;62.90;97738.30;2209240;81;21327;-85
2021/04/06 09:21:44;;;;;;;9.15;5.22;;;;;;;3.71;61.60;97737.01;2208774;81;21341;-88
2021/04/06 09:24:46;;;;;;;11.48;5.75;;;;;;;3.59;62.09;97737.48;2208815;81;21833;-84
2021/04/06 09:27:48;;;;;;;10.08;5.53;;;;;;;3.59;60.55;97734.41;2209677;80;21302;-85
2021/04/06 09:30:50;;;;;;;13.20;5.80;;;;;;;3.58;62.51;97737.97;2215801;80;21285;-85
2021/04/06 09:33:53;;;;;;;9.43;4.20;;;;;;;3.49;60.74;97723.88;2215827;80;21310;-86
2021/04/06 09:36:55;;;;;;;10.20;4.80;;;;;;;3.56;62.42;97737.78;2215561;80;21301;-86
2021/04/06 09:39:57;;;;;;;9.88;5.83;;;;;;;3.73;61.51;97723.90;2216140;80;21320;-86
2021/04/06 09:42:59;;;;;;;9.95;5.17;;;;;;;4.03;60.44;97719.89;2216049;80;21156;-86
2021/04/06 09:46:01;;;;;;;8.23;4.92;;;;;;;4.19;58.57;97726.34;2215947;80;21717;-84
2021/04/06 09:49:03;;;;;;;8.05;4.47;;;;;;;4.37;58.06;97716.28;2216070;80;21285;-85
2021/04/06 09:52:05;;;;;;;10.25;5.67;;;;;;;4.48;57.45;97705.11;2216044;80;21591;-85
2021/04/06 09:55:07;;;;;;;7.62;4.85;;;;;;;4.53;55.98;97711.08;2215797;80;21151;-84
2021/04/06 09:58:09;;;;;;;11.80;4.70;;;;;;;4.66;58.30;97709.25;2215780;80;21306;-84
2021/04/06 10:01:11;;;;;;;11.57;5.33;;;;;;;4.87;59.13;97707.42;2216216;80;21147;-84
2021/04/06 10:04:12;;;;;;;8.50;4.70;;;;;;;4.97;57.13;97705.44;2215847;80;21326;-83
2021/04/06 10:07:14;;;;;;;10.43;5.10;;;;;;;4.96;55.93;97709.82;2216310;80;21281;-84
2021/04/06 10:10:16;;;;;;;14.50;5.42;;;;;;;5.11;57.88;97692.55;2216790;80;21309;-85
2021/04/06 10:13:18;;;;;;;13.98;6.55;;;;;;;5.38;58.02;97698.25;2216368;80;21167;-86
2021/04/06 10:16:20;;;;;;;7.10;3.77;;;;;;;5.36;56.25;97697.62;2216290;80;21715;-85
2021/04/06 10:19:22;;;;;;;4.72;3.08;;;;;;;5.32;57.24;97697.66;2216680;80;21174;-85
2021/04/06 10:22:25;;;;;;;8.23;3.70;;;;;;;5.23;55.82;97699.97;2216370;80;21309;-82
2021/04/06 10:25:27;;;;;;;5.25;2.87;;;;;;;5.23;54.57;97692.19;2215911;80;21294;-84
2021/04/06 10:28:31;;;;;;;9.53;4.20;;;;;;;5.31;54.83;97691.66;2216769;80;21135;-84
2021/04/06 10:31:33;;;;;;;14.23;4.70;;;;;;;5.42;54.90;97690.45;2219367;80;21746;-83
2021/04/06 10:34:35;;;;;;;9.50;4.30;;;;;;;5.52;54.84;97703.21;2219197;80;21140;-83
2021/04/06 10:37:37;;;;;;;6.50;3.30;;;;;;;5.37;54.18;97705.23;2219236;80;21172;-83
2021/04/06 10:40:39;;;;;;;7.92;3.42;;;;;;;5.25;54.27;97702.70;2219452;80;21313;-84
2021/04/06 10:43:41;;;;;;;6.70;3.42;;;;;;;5.19;54.39;97701.27;2219295;80;21170;-83
2021/04/06 10:46:43;;;;;;;30.37;13.10;;;;;;;5.22;54.04;97696.57;2219322;80;21730;-84
2021/04/06 10:49:45;;;;;;;8.18;4.58;;;;;;;5.30;54.30;97692.64;2219254;80;21305;-84
2021/04/06 10:52:46;;;;;;;8.90;3.83;;;;;;;5.32;51.22;97689.87;2219232;80;21321;-84
2021/04/06 10:55:48;;;;;;;16.17;6.55;;;;;;;5.04;51.44;97681.73;2219071;80;21309;-83
2021/04/06 10:58:50;;;;;;;10.60;5.17;;;;;;;4.93;52.38;97685.48;2219437;80;21564;-84
2021/04/06 11:01:53;;;;;;;16.37;6.40;;;;;;;4.79;52.73;97682.32;2219136;80;21135;-83
2021/04/06 11:04:55;;;;;;;9.58;4.83;;;;;;;4.76;53.78;97693.84;2219081;80;21148;-82
2021/04/06 11:07:57;;;;;;;7.62;3.80;;;;;;;4.83;53.27;97684.88;2219422;80;21599;-83
2021/04/06 11:10:59;;;;;;;9.23;3.60;;;;;;;4.78;53.86;97685.41;2219103;80;21175;-84
2021/04/06 11:14:00;;;;;;;5.35;3.15;;;;;;;4.73;55.05;97679.09;2219142;80;21293;-83
2021/04/06 11:17:05;;;;;;;3.95;2.80;;;;;;;4.91;53.89;97665.41;2219335;80;21309;-83
2021/04/06 11:20:07;;;;;;;6.85;3.45;;;;;;;5.19;53.93;97668.83;2219105;80;21166;-85
2021/04/06 11:23:09;;;;;;;6.75;4.20;;;;;;;5.34;53.09;97669.73;2219246;80;21191;-84
2021/04/06 11:26:11;;;;;;;7.17;3.22;;;;;;;5.34;51.55;97674.43;2219086;80;21167;-84
2021/04/06 11:29:13;;;;;;;10.85;4.35;;;;;;;5.28;51.29;97671.21;2214506;79;21211;-85
2021/04/06 11:32:15;;;;;;;10.32;4.30;;;;;;;5.27;51.54;97688.26;2208913;81;21290;-87
2021/04/06 11:35:17;;;;;;;5.78;3.17;;;;;;;5.28;50.35;97677.70;2208058;81;21332;-87
2021/04/06 11:38:21;;;;;;;9.48;3.80;;;;;;;5.25;48.12;97669.45;2208386;81;21147;-85
2021/04/06 11:41:23;;;;;;;8.20;4.20;;;;;;;5.25;50.14;97670.76;2208779;81;21222;-86
2021/04/06 11:44:25;;;;;;;9.80;4.12;;;;;;;5.27;49.79;97669.59;2208526;81;21168;-86
2021/04/06 11:47:27;;;;;;;7.17;2.90;;;;;;;5.34;50.53;97666.64;2208398;81;21298;-85
2021/04/06 11:50:29;;;;;;;8.18;2.62;;;;;;;5.47;50.95;97660.87;2208373;81;21739;-85
2021/04/06 11:53:33;;;;;;;4.33;2.65;;;;;;;5.41;50.85;97671.97;2208272;81;21136;-85
2021/04/06 11:56:34;;;;;;;6.12;3.20;;;;;;;5.42;50.79;97665.30;2208492;81;21315;-85
2021/04/06 11:59:36;;;;;;;8.23;3.72;;;;;;;5.45;49.57;97660.73;2208636;81;21346;-86
2021/04/06 12:02:38;;;;;;;5.30;2.77;;;;;;;5.40;48.10;97661.27;2208427;81;21278;-86
2021/04/06 12:05:39;;;;;;;8.10;2.62;;;;;;;5.40;49.13;97664.67;2208305;81;21143;-87
2021/04/06 12:08:42;;;;;;;5.28;2.90;;;;;;;5.61;49.77;97654.95;2208407;81;21285;-87
2021/04/06 12:11:46;;;;;;;5.92;3.02;;;;;;;5.78;49.86;97658.72;2208584;81;21266;-86
2021/04/06 12:14:49;;;;;;;4.28;3.77;;;;;;;5.88;49.58;97657.49;2208300;81;21337;-86
2021/04/06 12:17:51;;;;;;;7.55;3.75;;;;;;;6.02;49.00;97653.33;2208526;81;21750;-85
2021/04/06 12:20:53;;;;;;;5.08;2.90;;;;;;;6.21;49.10;97647.63;2208383;81;21164;-83
2021/04/06 12:23:57;;;;;;;4.90;2.83;;;;;;;6.38;50.19;97648.27;2209109;81;21314;-86
2021/04/06 12:26:59;;;;;;;8.73;4.15;;;;;;;6.51;49.48;97639.87;2209631;81;21305;-89
2021/04/06 12:30:02;;;;;;;7.17;4.15;;;;;;;6.48;48.52;97633.20;2213257;80;21301;-85
2021/04/06 12:33:04;;;;;;;9.50;4.72;;;;;;;6.29;49.02;97646.73;2216105;80;21290;-84
2021/04/06 12:36:07;;;;;;;9.00;4.85;;;;;;;5.92;49.06;97664.47;2216194;80;21290;-84
2021/04/06 12:39:09;;;;;;;9.15;4.42;;;;;;;5.48;50.65;97661.67;2216322;80;21131;-79
2021/04/06 12:42:12;;;;;;;6.92;3.95;;;;;;;5.10;50.88;97649.41;2216622;80;21603;-85
2021/04/06 12:45:14;;;;;;;9.90;5.33;;;;;;;4.98;50.67;97642.19;2216444;80;21322;-85
2021/04/06 12:48:17;;;;;;;10.30;5.85;;;;;;;4.99;50.83;97634.73;2218266;80;21288;-87
2021/04/06 12:51:21;;;;;;;15.95;7.47;;;;;;;5.10;51.19;97641.62;2216736;80;21144;-87
2021/04/06 12:54:24;;;;;;;14.20;6.85;;;;;;;5.24;51.02;97632.81;2216395;80;21293;-85
2021/04/06 12:57:26;;;;;;;9.65;4.40;;;;;;;5.43;51.39;97632.36;2216009;80;21147;-86
2021/04/06 13:00:28;;;;;;;9.33;4.22;;;;;;;5.64;50.16;97629.11;2216485;80;21301;-87
2021/04/06 13:03:30;;;;;;;7.67;4.28;;;;;;;5.67;48.31;97640.47;2216335;80;21142;-89
2021/04/06 13:06:32;;;;;;;10.50;4.72;;;;;;;5.64;47.68;97634.30;2216637;80;21738;-87
2021/04/06 13:09:34;;;;;;;11.57;4.70;;;;;;;5.71;49.16;97639.13;2216549;80;21329;-87
2021/04/06 13:12:37;;;;;;;6.70;4.58;;;;;;;5.83;48.64;97626.02;2216747;80;21176;-89
2021/04/06 13:15:38;;;;;;;7.72;4.55;;;;;;;5.97;47.36;97626.59;2216477;80;21175;-84
2021/04/06 13:18:41;;;;;;;5.67;3.10;;;;;;;6.09;48.25;97618.36;2216214;80;21310;-86
2021/04/06 13:21:43;;;;;;;4.92;2.40;;;;;;;6.14;46.00;97614.75;2216380;80;21329;-89
2021/04/06 13:24:45;;;;;;;4.53;2.72;;;;;;;6.18;47.04;97609.50;2217174;80;21161;-85
2021/04/06 13:27:47;;;;;;;3.33;2.75;;;;;;;6.24;47.38;97613.50;2217202;80;21183;-89
2021/04/06 13:30:49;;;;;;;4.60;3.77;;;;;;;6.42;47.01;97613.14;2219496;80;21159;-86
2021/04/06 13:33:55;;;;;;;13.38;3.75;;;;;;;6.58;46.29;97613.42;2221168;80;21148;-84
2021/04/06 13:36:57;;;;;;;4.78;2.85;;;;;;;6.76;45.33;97600.05;2221172;80;21201;-86
2021/04/06 13:39:59;;;;;;;4.08;3.67;;;;;;;6.87;42.90;97602.20;2221463;80;21262;-90
2021/04/06 13:43:04;;;;;;;3.33;2.45;;;;;;;6.88;44.27;97608.20;2192693;80;21298;-85
2021/04/06 13:46:05;;;;;;;5.78;3.02;;;;;;;6.87;44.17;97606.59;2220319;80;21615;-83
2021/04/06 13:49:08;;;;;;;5.45;3.12;;;;;;;6.75;41.69;97610.14;2220845;80;21158;-89
2021/04/06 13:52:10;;;;;;;5.47;3.27;;;;;;;6.51;41.79;97610.77;2220648;80;21247;-84
2021/04/06 13:55:13;;;;;;;5.45;2.90;;;;;;;6.28;42.70;97613.44;2219936;80;21800;-84
2021/04/06 13:58:15;;;;;;;4.35;2.70;;;;;;;6.20;42.93;97605.72;2219905;80;21163;-85
2021/04/06 14:01:16;;;;;;;9.88;5.03;;;;;;;6.01;42.98;97614.53;2219849;80;21183;-84
2021/04/06 14:04:18;;;;;;;4.62;2.77;;;;;;;5.80;44.56;97621.69;2219437;80;21298;-84
2021/04/06 14:07:20;;;;;;;4.72;3.70;;;;;;;5.65;44.30;97615.94;2219461;80;21702;-84
2021/04/06 14:10:22;;;;;;;6.80;3.85;;;;;;;5.54;44.49;97611.66;2220236;80;21594;-83
2021/04/06 14:13:24;;;;;;;6.62;4.65;;;;;;;5.56;44.78;97606.60;2219926;80;21289;-84
2021/04/06 14:16:29;;;;;;;4.53;3.55;;;;;;;5.56;44.39;97609.69;2219763;80;21143;-82
2021/04/06 14:19:30;;;;;;;5.08;3.83;;;;;;;5.58;44.34;97603.36;2219587;80;21156;-84
2021/04/06 14:22:32;;;;;;;8.48;4.10;;;;;;;5.65;44.28;97601.66;2219353;80;21291;-83